Cerulean, Kentucky
Current Conditions -  °F | °C
As of 9:58 AM on Thursday 30 Oct 2014 (Local Time) from KHOP Reporting Station
Clear Clear  
Wind Chill: 51°   Ceiling: Unl
Heat Index: 51°   Visibility: 10mi
Dew Point: 40°   Wind: 2mph
Humidity: 67%   Direction: NA
Pressure: 30.17"   Gusts: NA
Location:  36.96°N, 87.71°W
Report Text: KHOP 301458Z AUTO VRB02KT 10SM CLR 11/05 A3017 RMK AO2 SLP219 T01050047 50002
Loading
Personal Weather Stations






























Interactive Weather Map
Tropical Storm Tracking
New forecast layout! Learn more

10-Day Weather Forecast

Advertisements
Track Severe Weather on mobile